Time;durP1;ratioP1;P1;durP2;ratioP2;P2;SDS_P1;SDS_P2;PMS_P1;PMS_P2;Temp;Humidity;BMP_temperature;BMP_pressure;BME280_temperature;BME280_humidity;BME280_pressure;Samples;Min_cycle;Max_cycle;Signal;HPM_P1;HPM_P2
2021/09/12 00:01:18;;;;;;;17.50;13.30;;;18.70;99.90;;;;;;5075534;28;20705;-47
2021/09/12 00:03:44;;;;;;;17.37;13.83;;;18.70;99.90;;;;;;5075565;28;20551;-44
2021/09/12 00:06:11;;;;;;;21.63;14.33;;;18.70;99.90;;;;;;5075376;28;20446;-44
2021/09/12 00:08:38;;;;;;;16.60;13.00;;;18.70;99.90;;;;;;5075459;28;20443;-52
2021/09/12 00:11:04;;;;;;;15.57;13.13;;;18.70;99.90;;;;;;5075598;28;20454;-47
2021/09/12 00:13:31;;;;;;;17.20;14.63;;;18.70;99.90;;;;;;5075483;28;20579;-48
2021/09/12 00:15:59;;;;;;;17.00;13.93;;;18.60;99.90;;;;;;5075520;28;20874;-46
2021/09/12 00:18:26;;;;;;;17.50;14.10;;;18.60;99.90;;;;;;5075059;28;20980;-46
2021/09/12 00:20:53;;;;;;;15.90;12.97;;;18.60;99.90;;;;;;5075038;28;20480;-50
2021/09/12 00:23:19;;;;;;;21.90;15.07;;;18.60;99.90;;;;;;5074676;28;20481;-50
2021/09/12 00:25:46;;;;;;;15.47;13.63;;;18.60;99.90;;;;;;5074402;28;20523;-47
2021/09/12 00:28:13;;;;;;;17.30;13.70;;;18.50;99.90;;;;;;5075316;28;20903;-49
2021/09/12 00:30:39;;;;;;;15.67;13.13;;;18.50;99.90;;;;;;5075121;28;20451;-45
2021/09/12 00:33:07;;;;;;;18.00;15.23;;;18.50;99.90;;;;;;5075089;28;20447;-44
2021/09/12 00:35:34;;;;;;;17.33;14.20;;;18.50;99.90;;;;;;5074860;28;20517;-44
2021/09/12 00:38:00;;;;;;;18.63;14.67;;;18.40;99.90;;;;;;5074980;28;20450;-51
2021/09/12 00:40:27;;;;;;;17.77;14.40;;;18.40;99.90;;;;;;5074919;28;20920;-49
2021/09/12 00:42:54;;;;;;;19.53;14.77;;;18.40;99.90;;;;;;5074715;28;20517;-47
2021/09/12 00:45:21;;;;;;;23.20;14.10;;;18.40;99.90;;;;;;5074794;28;20531;-50
2021/09/12 00:47:48;;;;;;;17.43;14.23;;;18.40;99.90;;;;;;5074787;28;20446;-50
2021/09/12 00:50:17;;;;;;;16.67;14.30;;;18.40;99.90;;;;;;5074539;28;20473;-50
2021/09/12 00:52:46;;;;;;;17.67;14.87;;;18.40;99.90;;;;;;5074976;28;20442;-50
2021/09/12 00:55:13;;;;;;;17.67;14.37;;;18.40;99.90;;;;;;5074779;28;20819;-49
2021/09/12 00:57:43;;;;;;;18.70;14.90;;;18.40;99.90;;;;;;5075128;28;20544;-47
2021/09/12 01:00:10;;;;;;;20.77;15.60;;;18.40;99.90;;;;;;5074649;28;20486;-49
2021/09/12 01:02:38;;;;;;;18.07;14.00;;;18.40;99.90;;;;;;5074800;28;20437;-48
2021/09/12 01:05:05;;;;;;;20.53;14.80;;;18.30;99.90;;;;;;5074757;28;20466;-46
2021/09/12 01:07:33;;;;;;;20.40;16.00;;;18.30;99.90;;;;;;5074966;28;20438;-46
2021/09/12 01:10:00;;;;;;;17.97;14.70;;;18.30;99.90;;;;;;5075061;28;20446;-49
2021/09/12 01:12:27;;;;;;;18.57;15.43;;;18.30;99.90;;;;;;5074631;28;20450;-46
2021/09/12 01:14:55;;;;;;;17.97;15.00;;;18.30;99.90;;;;;;5074797;28;20446;-47
2021/09/12 01:17:26;;;;;;;15.93;14.00;;;18.30;99.90;;;;;;5074348;28;20529;-47
2021/09/12 01:19:53;;;;;;;19.87;15.10;;;18.20;99.90;;;;;;5074520;28;20450;-46
2021/09/12 01:22:19;;;;;;;17.60;13.50;;;18.20;99.90;;;;;;5074847;28;20768;-46
2021/09/12 01:24:47;;;;;;;19.70;14.67;;;18.20;99.90;;;;;;5074369;28;20477;-52
2021/09/12 01:27:14;;;;;;;18.40;15.40;;;18.20;99.90;;;;;;5075018;28;20446;-47
2021/09/12 01:29:41;;;;;;;18.20;14.40;;;18.20;99.90;;;;;;5074611;28;20973;-48
2021/09/12 01:32:08;;;;;;;17.93;13.77;;;18.20;99.90;;;;;;5074580;28;20532;-49
2021/09/12 01:34:35;;;;;;;15.50;12.87;;;18.20;99.90;;;;;;5074445;28;20451;-50
2021/09/12 01:37:02;;;;;;;17.10;13.60;;;18.20;99.90;;;;;;5077867;28;20446;-50
2021/09/12 01:39:28;;;;;;;19.87;15.33;;;18.20;99.90;;;;;;5078605;28;20549;-51
2021/09/12 01:41:56;;;;;;;19.53;16.73;;;18.10;99.90;;;;;;5078045;28;20478;-45
2021/09/12 01:44:24;;;;;;;20.17;14.37;;;18.10;99.90;;;;;;5078002;28;20489;-45
2021/09/12 01:46:51;;;;;;;18.83;15.50;;;18.10;99.90;;;;;;5078445;28;20529;-51
2021/09/12 01:49:18;;;;;;;17.67;13.20;;;18.10;99.90;;;;;;5078550;28;20450;-52
2021/09/12 01:51:45;;;;;;;19.60;14.90;;;18.10;99.90;;;;;;5078680;28;20747;-49
2021/09/12 01:54:12;;;;;;;19.57;14.97;;;18.10;99.90;;;;;;5078326;28;20442;-47
2021/09/12 01:56:39;;;;;;;19.00;15.53;;;18.10;99.90;;;;;;5078271;28;20583;-47
2021/09/12 01:59:07;;;;;;;18.20;15.27;;;18.10;99.90;;;;;;5078012;28;20453;-50
2021/09/12 02:01:35;;;;;;;20.20;15.60;;;18.10;99.90;;;;;;5078074;28;20785;-50
2021/09/12 02:04:02;;;;;;;21.53;15.47;;;18.00;99.90;;;;;;5078158;28;20482;-49
2021/09/12 02:06:29;;;;;;;19.93;14.50;;;18.00;99.90;;;;;;5077781;28;20446;-52
2021/09/12 02:08:55;;;;;;;17.90;14.03;;;17.90;99.90;;;;;;5077888;28;20512;-47
2021/09/12 02:11:22;;;;;;;22.03;15.07;;;17.90;99.90;;;;;;5077705;28;20507;-50
2021/09/12 02:13:49;;;;;;;18.00;13.93;;;17.90;99.90;;;;;;5078004;28;20446;-46
2021/09/12 02:16:17;;;;;;;16.83;13.97;;;17.80;99.90;;;;;;5077900;28;20438;-47
2021/09/12 02:18:44;;;;;;;18.57;15.40;;;17.80;99.90;;;;;;5077962;28;20459;-48
2021/09/12 02:21:11;;;;;;;17.23;14.17;;;17.80;99.90;;;;;;5077769;28;20442;-50
2021/09/12 02:23:38;;;;;;;19.50;15.63;;;17.80;99.90;;;;;;5078030;28;20446;-48
2021/09/12 02:26:04;;;;;;;19.27;15.03;;;17.70;99.90;;;;;;5077891;28;20466;-50
2021/09/12 02:28:31;;;;;;;18.30;15.07;;;17.70;99.90;;;;;;5078006;28;20446;-47
2021/09/12 02:30:58;;;;;;;18.20;14.90;;;17.70;99.90;;;;;;5077787;28;20446;-49
2021/09/12 02:33:26;;;;;;;21.50;16.47;;;17.60;99.90;;;;;;5077611;28;20470;-47
2021/09/12 02:35:53;;;;;;;18.30;14.90;;;17.60;99.90;;;;;;5077716;28;20487;-49
2021/09/12 02:38:19;;;;;;;20.03;14.50;;;17.60;99.90;;;;;;5077619;28;20442;-52
2021/09/12 02:40:46;;;;;;;18.77;14.97;;;17.60;99.90;;;;;;5077508;28;20446;-47
2021/09/12 02:43:13;;;;;;;22.57;14.57;;;17.60;99.90;;;;;;5077296;28;20576;-51
2021/09/12 02:45:39;;;;;;;22.03;15.77;;;17.60;99.90;;;;;;5077413;28;20481;-48
2021/09/12 02:48:06;;;;;;;20.63;15.57;;;17.60;99.90;;;;;;5076596;28;20438;-45
2021/09/12 02:50:34;;;;;;;17.87;14.63;;;17.60;99.90;;;;;;5077815;28;20458;-45
2021/09/12 02:53:01;;;;;;;17.13;14.80;;;17.60;99.90;;;;;;5077114;28;20935;-46
2021/09/12 02:55:27;;;;;;;20.73;13.80;;;17.60;99.90;;;;;;5077282;28;20515;-49
2021/09/12 02:57:54;;;;;;;17.83;15.17;;;17.60;99.90;;;;;;5077336;28;20500;-49
2021/09/12 03:00:21;;;;;;;16.60;13.87;;;17.60;99.90;;;;;;5077317;28;20527;-49
2021/09/12 03:02:48;;;;;;;21.20;15.13;;;17.50;99.90;;;;;;5077117;28;20533;-44
2021/09/12 03:05:14;;;;;;;19.80;15.17;;;17.50;99.90;;;;;;5076965;28;20478;-45
2021/09/12 03:07:42;;;;;;;19.00;14.23;;;17.50;99.90;;;;;;5076955;28;21004;-49
2021/09/12 03:10:09;;;;;;;19.80;17.33;;;17.40;99.90;;;;;;5077140;28;20450;-50
2021/09/12 03:12:36;;;;;;;18.37;14.20;;;17.40;99.90;;;;;;5076860;28;21053;-49
2021/09/12 03:15:03;;;;;;;16.67;14.43;;;17.40;99.90;;;;;;5077054;28;20892;-50
2021/09/12 03:17:30;;;;;;;18.67;14.20;;;17.40;99.90;;;;;;5076886;28;20850;-49
2021/09/12 03:19:57;;;;;;;18.17;16.17;;;17.40;99.90;;;;;;5076926;28;20453;-52
2021/09/12 03:22:23;;;;;;;19.43;13.90;;;17.30;99.90;;;;;;5076666;28;20461;-47
2021/09/12 03:24:51;;;;;;;21.90;15.33;;;17.30;99.90;;;;;;5076975;28;20493;-51
2021/09/12 03:27:18;;;;;;;17.37;14.13;;;17.30;99.90;;;;;;5077477;28;20512;-49
2021/09/12 03:29:45;;;;;;;18.30;14.20;;;17.30;99.90;;;;;;5076140;28;20496;-47
2021/09/12 03:32:11;;;;;;;19.23;15.47;;;17.20;99.90;;;;;;5077153;28;20458;-44
2021/09/12 03:34:38;;;;;;;18.13;14.40;;;17.20;99.90;;;;;;5076630;28;20442;-52
2021/09/12 03:37:05;;;;;;;19.60;16.43;;;17.20;99.90;;;;;;5077215;28;20488;-50
2021/09/12 03:39:32;;;;;;;20.33;15.83;;;17.20;99.90;;;;;;5076795;28;20527;-48
2021/09/12 03:42:00;;;;;;;17.03;14.17;;;17.20;99.90;;;;;;5076322;28;20508;-48
2021/09/12 03:44:26;;;;;;;19.77;15.90;;;17.10;99.90;;;;;;5076377;28;20535;-45
2021/09/12 03:46:53;;;;;;;17.30;14.80;;;17.10;99.90;;;;;;5076045;28;20458;-49
2021/09/12 03:49:20;;;;;;;21.20;15.70;;;17.10;99.90;;;;;;5076206;28;20450;-47
2021/09/12 03:51:46;;;;;;;18.73;14.03;;;17.10;99.90;;;;;;5076139;28;20438;-47
2021/09/12 03:54:13;;;;;;;18.93;14.67;;;17.10;99.90;;;;;;5076381;28;20497;-45
2021/09/12 03:56:40;;;;;;;18.07;15.20;;;17.10;99.90;;;;;;5076155;28;20520;-49
2021/09/12 03:59:08;;;;;;;18.87;14.83;;;17.10;99.90;;;;;;5075812;28;20511;-49
2021/09/12 04:01:34;;;;;;;18.93;15.10;;;17.10;99.90;;;;;;5075665;28;20556;-52
2021/09/12 04:04:01;;;;;;;18.03;14.07;;;17.00;99.90;;;;;;5076190;28;20467;-48
2021/09/12 04:06:28;;;;;;;19.63;14.07;;;17.00;99.90;;;;;;5075908;28;20478;-48
2021/09/12 04:08:55;;;;;;;16.73;14.57;;;17.00;99.90;;;;;;5076347;28;20511;-50
2021/09/12 04:11:21;;;;;;;20.80;15.93;;;17.00;99.90;;;;;;5076004;28;20464;-48
2021/09/12 04:13:48;;;;;;;17.97;15.47;;;17.00;99.90;;;;;;5076044;28;20446;-51
2021/09/12 04:16:16;;;;;;;18.13;15.37;;;17.00;99.90;;;;;;5075706;28;20976;-49
2021/09/12 04:18:43;;;;;;;18.53;15.97;;;17.00;99.90;;;;;;5075840;28;20837;-48
2021/09/12 04:21:10;;;;;;;19.83;15.73;;;16.90;99.90;;;;;;5075553;28;20462;-50
2021/09/12 04:23:36;;;;;;;15.20;13.57;;;17.00;99.90;;;;;;5075689;28;20455;-50
2021/09/12 04:26:04;;;;;;;16.90;14.40;;;17.00;99.90;;;;;;5076029;28;20860;-51
2021/09/12 04:28:31;;;;;;;19.17;14.43;;;17.00;99.90;;;;;;5075804;28;20473;-47
2021/09/12 04:30:58;;;;;;;17.07;13.70;;;17.00;99.90;;;;;;5075300;28;20507;-47
2021/09/12 04:33:26;;;;;;;19.93;15.07;;;17.00;99.90;;;;;;5075183;28;20438;-48
2021/09/12 04:35:52;;;;;;;27.03;15.13;;;17.00;99.90;;;;;;5075466;28;20465;-46
2021/09/12 04:38:19;;;;;;;18.77;15.27;;;17.00;99.90;;;;;;5075632;28;20442;-49
2021/09/12 04:40:46;;;;;;;21.07;15.27;;;16.90;99.90;;;;;;5075244;28;20442;-44
2021/09/12 04:43:12;;;;;;;19.23;15.27;;;16.90;99.90;;;;;;5075544;28;20487;-50
2021/09/12 04:45:39;;;;;;;15.30;13.70;;;16.90;99.90;;;;;;5075275;28;20869;-52
2021/09/12 04:48:06;;;;;;;18.80;14.27;;;16.90;99.90;;;;;;5076001;28;20845;-53
2021/09/12 04:50:34;;;;;;;19.17;16.17;;;16.80;99.90;;;;;;5075597;28;20504;-47
2021/09/12 04:53:01;;;;;;;19.23;14.17;;;16.80;99.90;;;;;;5075684;28;20495;-48
2021/09/12 04:55:27;;;;;;;17.00;14.93;;;16.80;99.90;;;;;;5075608;28;20450;-47
2021/09/12 04:57:55;;;;;;;17.40;13.87;;;16.90;99.90;;;;;;5075394;28;20511;-46
2021/09/12 05:00:21;;;;;;;17.80;14.13;;;16.80;99.90;;;;;;5076322;28;20485;-45
2021/09/12 05:02:48;;;;;;;19.43;16.60;;;16.90;99.90;;;;;;5075984;28;20469;-48
2021/09/12 05:05:15;;;;;;;20.00;15.97;;;16.90;99.90;;;;;;5075295;28;20478;-47
2021/09/12 05:07:43;;;;;;;18.07;15.00;;;16.90;99.90;;;;;;5075567;28;20503;-50
2021/09/12 05:10:11;;;;;;;18.77;14.27;;;16.90;99.90;;;;;;5074769;28;20451;-47
2021/09/12 05:12:38;;;;;;;18.20;14.17;;;16.90;99.90;;;;;;5075308;28;20446;-51
2021/09/12 05:15:05;;;;;;;24.57;15.80;;;16.90;99.90;;;;;;5075303;28;20508;-51
2021/09/12 05:17:32;;;;;;;27.30;15.10;;;16.90;99.90;;;;;;5074786;28;20916;-51
2021/09/12 05:19:59;;;;;;;19.30;16.00;;;16.90;99.90;;;;;;5075139;28;20469;-50
2021/09/12 05:22:25;;;;;;;25.53;15.10;;;16.90;99.90;;;;;;5075046;28;20883;-48
2021/09/12 05:24:53;;;;;;;22.17;14.00;;;16.90;99.90;;;;;;5075514;28;20788;-49
2021/09/12 05:27:20;;;;;;;15.27;13.13;;;16.90;99.90;;;;;;5075306;28;20450;-47
2021/09/12 05:29:47;;;;;;;24.80;16.07;;;17.00;99.90;;;;;;5074902;28;20458;-46
2021/09/12 05:32:13;;;;;;;19.27;14.47;;;17.00;99.90;;;;;;5074545;28;20438;-49
2021/09/12 05:34:40;;;;;;;21.47;15.50;;;17.10;99.90;;;;;;5074852;28;20446;-50
2021/09/12 05:37:07;;;;;;;21.77;17.33;;;17.10;99.90;;;;;;5074862;28;20489;-48
2021/09/12 05:39:33;;;;;;;18.03;14.30;;;17.10;99.90;;;;;;5074969;28;20446;-44
2021/09/12 05:42:02;;;;;;;20.60;14.40;;;17.20;99.90;;;;;;5074943;28;20479;-46
2021/09/12 05:44:28;;;;;;;18.90;14.90;;;17.20;99.90;;;;;;5075211;28;20454;-51
2021/09/12 05:46:55;;;;;;;19.67;14.37;;;17.30;99.90;;;;;;5074636;28;20528;-47
2021/09/12 05:49:22;;;;;;;21.50;16.20;;;17.30;99.90;;;;;;5074941;28;20454;-44
2021/09/12 05:51:50;;;;;;;18.53;14.63;;;17.40;99.90;;;;;;5074625;28;20961;-49
2021/09/12 05:54:17;;;;;;;18.10;13.93;;;17.50;99.90;;;;;;5074882;28;20960;-48
2021/09/12 05:56:43;;;;;;;18.50;14.13;;;17.50;99.90;;;;;;5074371;28;20548;-47
2021/09/12 05:59:11;;;;;;;25.77;16.63;;;17.60;99.90;;;;;;5075195;28;20446;-49
2021/09/12 06:01:38;;;;;;;21.93;14.63;;;17.70;99.90;;;;;;5075059;28;20450;-47
2021/09/12 06:04:05;;;;;;;18.53;14.70;;;17.80;99.90;;;;;;5074854;28;20769;-48
2021/09/12 06:06:32;;;;;;;19.83;15.57;;;17.80;99.90;;;;;;5074418;28;20869;-49
2021/09/12 06:08:58;;;;;;;15.90;13.40;;;17.90;99.90;;;;;;5074526;28;20438;-49
2021/09/12 06:11:25;;;;;;;17.33;15.37;;;17.90;99.90;;;;;;5074575;28;20454;-51
2021/09/12 06:13:52;;;;;;;18.67;15.00;;;17.90;99.90;;;;;;5074517;28;20451;-49
2021/09/12 06:16:20;;;;;;;17.93;14.40;;;18.00;99.90;;;;;;5074491;28;20466;-48
2021/09/12 06:18:47;;;;;;;19.30;14.40;;;18.00;99.90;;;;;;5074540;28;20515;-49
2021/09/12 06:21:13;;;;;;;18.23;14.90;;;18.10;99.90;;;;;;5074242;28;20756;-44
2021/09/12 06:23:40;;;;;;;15.40;13.53;;;18.10;99.90;;;;;;5076992;28;20503;-49
2021/09/12 06:26:07;;;;;;;18.00;13.40;;;18.20;99.90;;;;;;5078419;28;20515;-46
2021/09/12 06:28:33;;;;;;;19.33;14.70;;;18.20;99.90;;;;;;5077867;28;20503;-51
2021/09/12 06:31:00;;;;;;;19.40;14.63;;;18.30;99.90;;;;;;5077788;28;20454;-46
2021/09/12 06:33:28;;;;;;;19.70;14.30;;;18.30;99.90;;;;;;5077576;28;20450;-50
2021/09/12 06:35:55;;;;;;;19.93;14.07;;;18.40;99.90;;;;;;5077481;28;20949;-45
2021/09/12 06:38:22;;;;;;;19.53;15.53;;;18.40;99.90;;;;;;5077498;28;20446;-46
2021/09/12 06:40:49;;;;;;;18.10;14.53;;;18.30;99.90;;;;;;5077339;28;20477;-49
2021/09/12 06:43:15;;;;;;;19.43;15.57;;;18.40;99.90;;;;;;5077611;28;20500;-48
2021/09/12 06:45:43;;;;;;;21.07;15.43;;;18.50;99.90;;;;;;5077354;28;20551;-46
2021/09/12 06:48:09;;;;;;;16.60;12.47;;;18.50;99.90;;;;;;5077234;28;20449;-46
2021/09/12 06:50:38;;;;;;;22.80;15.13;;;18.50;99.90;;;;;;5077272;28;20458;-48
2021/09/12 06:53:04;;;;;;;17.73;12.83;;;18.50;99.90;;;;;;5077412;28;20503;-48
2021/09/12 06:55:31;;;;;;;15.50;13.27;;;18.60;99.90;;;;;;5077683;28;20446;-51
2021/09/12 06:57:57;;;;;;;15.63;13.37;;;18.70;99.90;;;;;;5077213;28;20446;-48
2021/09/12 07:00:25;;;;;;;15.17;11.90;;;18.80;99.90;;;;;;5077394;28;20517;-51
2021/09/12 07:02:51;;;;;;;17.00;13.70;;;18.90;99.90;;;;;;5077362;28;20931;-46
2021/09/12 07:05:18;;;;;;;16.87;13.60;;;19.00;99.90;;;;;;5076993;28;20459;-49
2021/09/12 07:07:46;;;;;;;16.27;13.70;;;19.10;99.90;;;;;;5076733;28;20480;-48
2021/09/12 07:10:13;;;;;;;18.07;14.13;;;19.20;99.90;;;;;;5077250;28;20454;-46
2021/09/12 07:12:40;;;;;;;17.03;14.40;;;19.30;99.90;;;;;;5077098;28;20934;-52
2021/09/12 07:15:07;;;;;;;20.10;15.53;;;19.50;99.90;;;;;;5076734;28;20511;-49
2021/09/12 07:17:34;;;;;;;20.67;13.40;;;19.60;99.90;;;;;;5076718;28;20524;-48
2021/09/12 07:20:00;;;;;;;14.83;11.80;;;19.80;99.90;;;;;;5076597;28;20446;-46
2021/09/12 07:22:27;;;;;;;14.90;12.00;;;19.90;99.90;;;;;;5076833;28;20517;-44
2021/09/12 07:24:55;;;;;;;14.70;12.13;;;20.10;99.90;;;;;;5076466;28;20450;-46
2021/09/12 07:27:22;;;;;;;18.50;12.50;;;20.20;99.90;;;;;;5076245;28;20547;-50
2021/09/12 07:29:50;;;;;;;17.30;12.13;;;20.30;99.90;;;;;;5076624;28;20454;-44
2021/09/12 07:32:16;;;;;;;14.03;11.80;;;20.30;99.90;;;;;;5076698;28;20480;-50
2021/09/12 07:34:43;;;;;;;13.60;10.90;;;20.20;99.90;;;;;;5076059;28;20465;-49
2021/09/12 07:37:09;;;;;;;12.97;10.87;;;20.30;99.90;;;;;;5076799;28;20504;-47
2021/09/12 07:39:36;;;;;;;17.20;11.57;;;20.30;99.90;;;;;;5076414;28;20443;-45
2021/09/12 07:42:05;;;;;;;13.67;10.33;;;20.30;99.90;;;;;;5076599;28;20947;-47
2021/09/12 07:44:31;;;;;;;15.57;11.13;;;20.30;99.90;;;;;;5076379;28;20458;-47
2021/09/12 07:46:58;;;;;;;15.47;12.10;;;20.30;99.90;;;;;;5076218;28;20481;-51
2021/09/12 07:49:25;;;;;;;14.27;12.13;;;20.20;99.90;;;;;;5075987;28;20446;-51
2021/09/12 07:51:51;;;;;;;13.40;11.17;;;20.10;99.90;;;;;;5075837;28;20451;-49
2021/09/12 07:54:18;;;;;;;13.80;11.33;;;20.20;99.90;;;;;;5075712;28;20446;-49
2021/09/12 07:56:45;;;;;;;16.50;11.27;;;20.30;99.90;;;;;;5075701;28;20512;-50
2021/09/12 07:59:13;;;;;;;16.50;12.20;;;20.40;99.90;;;;;;5076250;28;20446;-49
2021/09/12 08:01:39;;;;;;;19.80;11.67;;;20.30;99.90;;;;;;5075472;28;20532;-49
2021/09/12 08:04:06;;;;;;;13.43;11.97;;;20.30;99.90;;;;;;5075858;28;20511;-45
2021/09/12 08:06:33;;;;;;;13.70;12.20;;;20.30;99.90;;;;;;5075689;28;20973;-44
2021/09/12 08:08:59;;;;;;;16.13;12.57;;;20.20;99.90;;;;;;5075688;28;20942;-47
2021/09/12 08:11:26;;;;;;;15.97;11.63;;;20.10;99.90;;;;;;5076000;28;20454;-44
2021/09/12 08:13:52;;;;;;;17.97;14.43;;;20.10;99.90;;;;;;5075323;28;20457;-46
2021/09/12 08:16:20;;;;;;;18.80;12.10;;;20.10;99.90;;;;;;5075368;28;20516;-50
2021/09/12 08:18:47;;;;;;;15.60;12.27;;;20.10;99.90;;;;;;5075302;28;20978;-45
2021/09/12 08:21:14;;;;;;;18.43;12.30;;;20.20;99.90;;;;;;5075730;28;20446;-46
2021/09/12 08:23:40;;;;;;;13.83;11.63;;;20.20;99.90;;;;;;5075604;28;20922;-50
2021/09/12 08:26:07;;;;;;;16.00;12.77;;;20.20;99.90;;;;;;5075369;28;20474;-48
2021/09/12 08:28:34;;;;;;;14.90;12.07;;;20.30;99.90;;;;;;5075535;28;20531;-44
2021/09/12 08:31:00;;;;;;;14.53;11.37;;;20.30;99.90;;;;;;5075552;28;20841;-44
2021/09/12 08:33:29;;;;;;;15.40;12.00;;;20.40;99.90;;;;;;5075123;28;20915;-45
2021/09/12 08:35:55;;;;;;;14.93;11.80;;;20.40;99.90;;;;;;5075542;28;20469;-45
2021/09/12 08:38:22;;;;;;;18.93;12.00;;;20.50;99.90;;;;;;5074845;28;20945;-44
2021/09/12 08:40:54;;;;;;;19.03;12.70;;;20.50;99.90;;;;;;5074649;28;20952;-44
2021/09/12 08:43:21;;;;;;;15.67;11.70;;;20.50;99.90;;;;;;5075120;28;20450;-46
2021/09/12 08:45:49;;;;;;;16.70;12.90;;;20.50;99.90;;;;;;5074213;28;20446;-45
2021/09/12 08:48:16;;;;;;;15.10;12.73;;;20.50;99.90;;;;;;5075316;28;20446;-46
2021/09/12 08:50:44;;;;;;;12.60;10.87;;;20.50;99.90;;;;;;5075101;28;20528;-50
2021/09/12 08:53:11;;;;;;;16.80;11.70;;;20.50;99.90;;;;;;5075201;28;20438;-52
2021/09/12 08:55:38;;;;;;;18.00;13.30;;;20.40;99.90;;;;;;5074717;28;20495;-52
2021/09/12 08:58:05;;;;;;;16.87;12.60;;;20.30;99.90;;;;;;5074887;28;20519;-52
2021/09/12 09:00:32;;;;;;;25.90;15.97;;;20.30;99.90;;;;;;5075024;28;20446;-48
2021/09/12 09:03:00;;;;;;;12.93;11.03;;;20.30;99.90;;;;;;5074821;28;20454;-50
2021/09/12 09:05:32;;;;;;;16.40;12.07;;;20.30;99.90;;;;;;5075129;28;20438;-53
2021/09/12 09:08:08;;;;;;;17.13;12.30;;;20.30;99.90;;;;;;5074341;28;20485;-49
2021/09/12 09:10:40;;;;;;;15.43;11.23;;;20.40;99.90;;;;;;5074721;28;20766;-51
2021/09/12 09:13:30;;;;;;;13.73;11.60;;;20.50;99.90;;;;;;5074721;28;20448;-50
2021/09/12 09:15:58;;;;;;;13.67;11.40;;;20.60;99.90;;;;;;5074545;28;20538;-51
2021/09/12 09:18:36;;;;;;;14.20;12.17;;;20.60;99.90;;;;;;5074282;28;20472;-48
2021/09/12 09:21:23;;;;;;;13.67;11.70;;;20.70;99.90;;;;;;5074363;28;20480;-46
2021/09/12 09:24:06;;;;;;;15.30;11.27;;;20.80;99.90;;;;;;5074354;28;20454;-50
2021/09/12 09:26:35;;;;;;;16.80;14.30;;;20.90;99.90;;;;;;5074652;28;20471;-51
2021/09/12 09:29:02;;;;;;;12.53;11.20;;;21.00;99.90;;;;;;5074174;28;20516;-46
2021/09/12 09:31:29;;;;;;;16.33;12.60;;;20.90;99.90;;;;;;5074318;28;20527;-47
2021/09/12 09:33:56;;;;;;;14.43;11.67;;;21.00;99.90;;;;;;5074559;28;20438;-50
2021/09/12 09:36:30;;;;;;;14.60;12.97;;;21.10;99.90;;;;;;5074319;28;20764;-51
2021/09/12 09:38:58;;;;;;;15.90;12.00;;;21.10;99.90;;;;;;5074669;28;20444;-51
2021/09/12 09:41:25;;;;;;;17.17;13.67;;;21.10;99.90;;;;;;5074084;28;20474;-49
2021/09/12 09:43:54;;;;;;;12.83;11.03;;;21.10;99.90;;;;;;5074650;28;20438;-50
2021/09/12 09:46:33;;;;;;;14.17;12.40;;;21.20;99.90;;;;;;5074461;28;20481;-50
2021/09/12 09:49:01;;;;;;;15.23;12.50;;;21.20;99.90;;;;;;5074329;28;20775;-51
2021/09/12 09:51:29;;;;;;;14.20;12.10;;;21.30;99.90;;;;;;5074476;28;20500;-47
2021/09/12 09:53:58;;;;;;;15.10;12.87;;;21.30;99.90;;;;;;5074025;28;20476;-51
2021/09/12 09:56:26;;;;;;;17.43;13.37;;;21.60;99.90;;;;;;5074643;28;20450;-50
2021/09/12 09:58:55;;;;;;;14.67;11.70;;;21.90;99.90;;;;;;5078029;28;20461;-50
2021/09/12 10:01:22;;;;;;;12.73;10.30;;;22.30;99.90;;;;;;5077625;28;20829;-53
2021/09/12 10:03:49;;;;;;;15.80;12.90;;;22.80;99.90;;;;;;5077293;28;20470;-48
2021/09/12 10:06:16;;;;;;;13.20;11.60;;;23.20;99.90;;;;;;5077302;28;20484;-52
2021/09/12 10:08:44;;;;;;;14.20;11.80;;;23.60;99.90;;;;;;5077298;28;20507;-48
2021/09/12 10:11:12;;;;;;;14.97;11.00;;;23.90;99.90;;;;;;5077549;28;20499;-51
2021/09/12 10:13:41;;;;;;;19.00;12.53;;;23.80;99.90;;;;;;5077342;28;20462;-46
2021/09/12 10:16:09;;;;;;;15.00;10.13;;;23.70;99.90;;;;;;5077488;28;20511;-45
2021/09/12 10:18:36;;;;;;;12.30;11.00;;;23.80;99.90;;;;;;5077210;28;20898;-44
2021/09/12 10:21:25;;;;;;;12.27;10.40;;;24.10;99.90;;;;;;5077433;28;20491;-48
2021/09/12 10:24:03;;;;;;;11.07;9.97;;;24.50;99.90;;;;;;5077117;28;20438;-47
2021/09/12 10:26:32;;;;;;;10.77;9.63;;;24.90;99.90;;;;;;5077115;28;20477;-46
2021/09/12 10:29:01;;;;;;;8.80;7.83;;;24.90;99.90;;;;;;5077256;28;20532;-48
2021/09/12 10:31:33;;;;;;;9.20;8.30;;;24.70;99.90;;;;;;5077045;28;20523;-44
2021/09/12 10:34:07;;;;;;;10.67;8.50;;;24.50;99.90;;;;;;5077162;28;20458;-47
2021/09/12 10:36:35;;;;;;;10.00;8.87;;;24.40;99.90;;;;;;5077140;28;20458;-52
2021/09/12 10:39:25;;;;;;;10.23;9.20;;;24.10;99.90;;;;;;5076931;28;20915;-47
2021/09/12 10:42:17;;;;;;;9.70;8.77;;;24.10;99.90;;;;;;5076787;28;20470;-46
2021/09/12 10:44:46;;;;;;;9.47;8.20;;;24.00;99.90;;;;;;5077088;28;20461;-45
2021/09/12 10:47:14;;;;;;;11.23;8.73;;;23.90;99.90;;;;;;5076717;28;20486;-50
2021/09/12 10:49:41;;;;;;;9.83;8.83;;;23.80;99.90;;;;;;5077105;28;20935;-50
2021/09/12 10:52:10;;;;;;;9.43;8.40;;;24.00;99.90;;;;;;5076721;28;20443;-52
2021/09/12 10:55:07;;;;;;;8.33;7.10;;;24.20;99.90;;;;;;5076783;28;20458;-52
2021/09/12 10:57:36;;;;;;;9.90;6.77;;;24.10;99.90;;;;;;5076820;28;20496;-52
2021/09/12 11:00:06;;;;;;;10.87;7.63;;;24.50;99.90;;;;;;5076617;28;20438;-44
2021/09/12 11:02:33;;;;;;;14.53;10.37;;;24.70;99.90;;;;;;5076674;28;20500;-50
2021/09/12 11:05:00;;;;;;;9.43;7.97;;;24.70;99.90;;;;;;5076265;28;20442;-51
2021/09/12 11:07:26;;;;;;;10.53;9.20;;;24.60;99.90;;;;;;5076233;28;20474;-45
2021/09/12 11:09:53;;;;;;;9.37;8.20;;;24.50;99.90;;;;;;5075827;28;20457;-46
2021/09/12 11:12:29;;;;;;;10.20;7.97;;;24.40;99.90;;;;;;5076523;28;20458;-47
2021/09/12 11:14:56;;;;;;;8.87;7.73;;;24.20;99.90;;;;;;5076737;28;20528;-47
2021/09/12 11:17:24;;;;;;;8.67;7.70;;;24.10;99.90;;;;;;5075888;28;20483;-48
2021/09/12 11:19:54;;;;;;;8.80;7.07;;;24.00;99.90;;;;;;5076119;28;20845;-49
2021/09/12 11:22:21;;;;;;;8.67;7.77;;;23.90;99.90;;;;;;5075958;28;20529;-50
2021/09/12 11:24:47;;;;;;;10.67;8.47;;;23.80;99.90;;;;;;5075900;28;20531;-47
2021/09/12 11:27:14;;;;;;;8.40;7.47;;;23.90;99.90;;;;;;5075989;28;20528;-45
2021/09/12 11:29:41;;;;;;;11.00;7.30;;;24.00;99.90;;;;;;5075898;28;20520;-51
2021/09/12 11:32:09;;;;;;;9.73;7.10;;;24.10;99.90;;;;;;5075941;28;20450;-50
2021/09/12 11:34:41;;;;;;;9.83;6.20;;;24.20;99.90;;;;;;5076061;28;20533;-44
2021/09/12 11:37:10;;;;;;;7.10;6.33;;;24.20;99.90;;;;;;5075800;28;20462;-51
2021/09/12 11:39:39;;;;;;;8.63;6.93;;;24.20;99.90;;;;;;5076241;28;20442;-49
2021/09/12 11:42:08;;;;;;;11.50;7.00;;;24.10;99.90;;;;;;5075387;28;20851;-48
2021/09/12 11:44:37;;;;;;;7.97;7.17;;;24.00;99.90;;;;;;5075689;28;20454;-49
2021/09/12 11:47:07;;;;;;;7.87;6.47;;;23.90;99.90;;;;;;5075470;28;20470;-48
2021/09/12 11:49:34;;;;;;;8.50;7.70;;;23.90;99.90;;;;;;5075633;28;20458;-46
2021/09/12 11:52:02;;;;;;;9.47;7.00;;;23.90;99.90;;;;;;5075887;28;20875;-49
2021/09/12 11:54:31;;;;;;;8.93;7.40;;;23.80;99.90;;;;;;5075476;28;20458;-47
2021/09/12 11:57:00;;;;;;;7.87;7.03;;;23.80;99.90;;;;;;5075401;28;20907;-47
2021/09/12 11:59:28;;;;;;;8.47;7.60;;;23.70;99.90;;;;;;5075243;28;20525;-48
2021/09/12 12:01:56;;;;;;;9.80;7.43;;;23.60;99.90;;;;;;5075568;28;20446;-51
2021/09/12 12:04:23;;;;;;;7.93;7.13;;;23.50;99.90;;;;;;5075451;28;20810;-50
2021/09/12 12:06:54;;;;;;;9.00;7.60;;;23.50;99.90;;;;;;5074989;28;20499;-53
2021/09/12 12:09:28;;;;;;;9.87;7.43;;;23.40;99.90;;;;;;5075311;28;20441;-51
2021/09/12 12:12:05;;;;;;;7.33;6.60;;;23.40;99.90;;;;;;5075336;28;20807;-50
2021/09/12 12:14:32;;;;;;;8.50;7.70;;;23.50;99.90;;;;;;5075235;28;20541;-49
2021/09/12 12:17:03;;;;;;;6.93;5.87;;;23.60;99.90;;;;;;5075028;28;20457;-48
2021/09/12 12:19:34;;;;;;;7.33;6.50;;;23.60;99.90;;;;;;5075177;28;20764;-51
2021/09/12 12:22:06;;;;;;;6.33;5.73;;;23.60;99.90;;;;;;5075043;28;20800;-49
2021/09/12 12:24:37;;;;;;;6.87;6.17;;;23.50;99.90;;;;;;5075062;28;20438;-50
2021/09/12 12:27:07;;;;;;;6.50;5.83;;;23.50;99.90;;;;;;5074815;28;20545;-50
2021/09/12 12:29:35;;;;;;;9.47;6.50;;;23.50;99.90;;;;;;5075063;28;20521;-51
2021/09/12 12:32:03;;;;;;;9.03;8.03;;;23.50;99.90;;;;;;5074653;28;20450;-47
2021/09/12 12:34:42;;;;;;;10.57;7.80;;;23.50;99.90;;;;;;5074575;28;20935;-45